Time;durP1;ratioP1;P1;durP2;ratioP2;P2;SDS_P1;SDS_P2;PMS_P1;PMS_P2;Temp;Humidity;BMP_temperature;BMP_pressure;BME280_temperature;BME280_humidity;BME280_pressure;Samples;Min_cycle;Max_cycle;Signal;HPM_P1;HPM_P2
2022/10/10 00:00:14;;;;;;;7.03;4.23;;;;;;;;;;5098077;28;20316;-63
2022/10/10 00:02:42;;;;;;;4.73;3.47;;;;;;;;;;5098109;28;20213;-63
2022/10/10 00:05:10;;;;;;;4.77;3.30;;;;;;;;;;5097545;28;20221;-63
2022/10/10 00:07:39;;;;;;;4.73;3.23;;;;;;;;;;5095808;28;20664;-63
2022/10/10 00:10:08;;;;;;;3.67;3.30;;;;;;;;;;5097507;28;20201;-63
2022/10/10 00:12:36;;;;;;;7.57;3.53;;;;;;;;;;5096799;28;20205;-64
2022/10/10 00:15:04;;;;;;;5.63;3.60;;;;;;;;;;5097583;28;20218;-64
2022/10/10 00:17:32;;;;;;;8.53;3.30;;;;;;;;;;5097516;28;20570;-63
2022/10/10 00:20:00;;;;;;;5.93;3.33;;;;;;;;;;5097712;28;20221;-64
2022/10/10 00:22:28;;;;;;;6.00;3.17;;;;;;;;;;5097765;28;20202;-63
2022/10/10 00:24:58;;;;;;;6.40;3.60;;;;;;;;;;5097142;28;20225;-64
2022/10/10 00:27:26;;;;;;;5.93;3.87;;;;;;;;;;5097057;28;20232;-63
2022/10/10 00:29:54;;;;;;;3.77;3.30;;;;;;;;;;5097525;28;20208;-64
2022/10/10 00:32:22;;;;;;;3.97;3.33;;;;;;;;;;5097626;28;20201;-63
2022/10/10 00:34:49;;;;;;;3.93;3.07;;;;;;;;;;5097224;28;20716;-63
2022/10/10 00:37:17;;;;;;;3.80;3.40;;;;;;;;;;5097686;28;20201;-63
2022/10/10 00:39:45;;;;;;;5.23;3.63;;;;;;;;;;5097102;28;20233;-63
2022/10/10 00:42:16;;;;;;;5.03;3.20;;;;;;;;;;5097242;28;20206;-63
2022/10/10 00:44:45;;;;;;;4.20;3.03;;;;;;;;;;5097253;28;20225;-63
2022/10/10 00:47:13;;;;;;;5.97;3.60;;;;;;;;;;5097521;28;20238;-63
2022/10/10 00:49:43;;;;;;;5.20;3.20;;;;;;;;;;5097574;28;20213;-63
2022/10/10 00:52:12;;;;;;;4.90;3.27;;;;;;;;;;5097441;28;20213;-63
2022/10/10 00:54:40;;;;;;;5.47;3.67;;;;;;;;;;5097185;28;20227;-63
2022/10/10 00:57:08;;;;;;;3.80;3.40;;;;;;;;;;5097089;28;20212;-63
2022/10/10 00:59:39;;;;;;;5.23;3.53;;;;;;;;;;5097511;28;20208;-63
2022/10/10 01:02:07;;;;;;;7.93;3.60;;;;;;;;;;5097402;28;20217;-63
2022/10/10 01:04:36;;;;;;;6.73;3.70;;;;;;;;;;5097302;28;20305;-63
2022/10/10 01:07:11;;;;;;;7.47;3.73;;;;;;;;;;5097329;28;20209;-63
2022/10/10 01:09:41;;;;;;;7.27;3.43;;;;;;;;;;5097135;28;20287;-63
2022/10/10 01:12:15;;;;;;;5.57;3.13;;;;;;;;;;5097250;28;20205;-63
2022/10/10 01:14:47;;;;;;;6.00;3.63;;;;;;;;;;5097145;28;20225;-63
2022/10/10 01:17:19;;;;;;;6.07;3.07;;;;;;;;;;5097182;28;20676;-63
2022/10/10 01:20:07;;;;;;;4.90;3.47;;;;;;;;;;5097350;28;20213;-63
2022/10/10 01:22:39;;;;;;;3.83;3.40;;;;;;;;;;5097083;28;20205;-63
2022/10/10 01:25:14;;;;;;;9.57;3.50;;;;;;;;;;5096428;28;20704;-63
2022/10/10 01:27:46;;;;;;;4.73;3.80;;;;;;;;;;5100666;28;20216;-63
2022/10/10 01:30:16;;;;;;;5.87;3.80;;;;;;;;;;5087299;28;20205;-63
2022/10/10 01:32:50;;;;;;;4.13;3.30;;;;;;;;;;5100735;28;20216;-63
2022/10/10 01:35:28;;;;;;;5.00;3.43;;;;;;;;;;5100411;28;20314;-63
2022/10/10 01:38:03;;;;;;;3.87;3.47;;;;;;;;;;5100162;28;20248;-63
2022/10/10 01:40:33;;;;;;;4.30;3.50;;;;;;;;;;5100298;28;20205;-63
2022/10/10 01:43:02;;;;;;;3.17;2.90;;;;;;;;;;5100434;28;20213;-63
2022/10/10 01:45:31;;;;;;;5.13;3.60;;;;;;;;;;5100552;28;20212;-63
2022/10/10 01:48:01;;;;;;;6.07;3.43;;;;;;;;;;5100306;28;20226;-63
2022/10/10 01:50:30;;;;;;;5.23;3.50;;;;;;;;;;5100486;28;20209;-63
2022/10/10 01:53:03;;;;;;;5.40;3.47;;;;;;;;;;5099876;28;20238;-63
2022/10/10 01:55:43;;;;;;;6.70;3.93;;;;;;;;;;5099933;28;20216;-63
2022/10/10 01:58:17;;;;;;;5.93;3.80;;;;;;;;;;5100093;28;20577;-63
2022/10/10 02:00:49;;;;;;;4.07;3.73;;;;;;;;;;5100189;28;20216;-63
2022/10/10 02:03:19;;;;;;;7.20;4.00;;;;;;;;;;5100181;28;20239;-63
2022/10/10 02:05:49;;;;;;;5.00;4.13;;;;;;;;;;5099796;28;20209;-62
2022/10/10 02:08:20;;;;;;;4.80;3.93;;;;;;;;;;5099443;28;20630;-63
2022/10/10 02:10:49;;;;;;;7.80;4.67;;;;;;;;;;5099909;28;20213;-63
2022/10/10 02:13:18;;;;;;;4.70;3.80;;;;;;;;;;5099672;28;20237;-63
2022/10/10 02:15:48;;;;;;;6.03;4.30;;;;;;;;;;5099906;28;20213;-63
2022/10/10 02:18:17;;;;;;;6.83;4.20;;;;;;;;;;5099615;28;20549;-63
2022/10/10 02:20:46;;;;;;;5.17;4.20;;;;;;;;;;5099836;28;20210;-63
2022/10/10 02:23:14;;;;;;;5.03;4.40;;;;;;;;;;5098978;28;20683;-63
2022/10/10 02:25:43;;;;;;;7.00;4.17;;;;;;;;;;5099430;28;20209;-63
2022/10/10 02:28:13;;;;;;;5.10;4.60;;;;;;;;;;5099407;28;20232;-64
2022/10/10 02:30:44;;;;;;;8.53;4.60;;;;;;;;;;5099653;28;20206;-63
2022/10/10 02:33:16;;;;;;;6.00;5.17;;;;;;;;;;5099454;28;20206;-63
2022/10/10 02:35:46;;;;;;;7.97;4.77;;;;;;;;;;5099004;28;20661;-63
2022/10/10 02:38:15;;;;;;;6.13;4.40;;;;;;;;;;5098825;28;20205;-63
2022/10/10 02:40:43;;;;;;;9.37;4.53;;;;;;;;;;5099380;28;20216;-63
2022/10/10 02:43:12;;;;;;;5.73;4.43;;;;;;;;;;5099254;28;20309;-63
2022/10/10 02:45:42;;;;;;;6.67;4.87;;;;;;;;;;5099426;28;20215;-63
2022/10/10 02:48:10;;;;;;;6.20;4.43;;;;;;;;;;5098913;28;20222;-63
2022/10/10 02:50:39;;;;;;;6.90;5.20;;;;;;;;;;5099425;28;20206;-62
2022/10/10 02:53:07;;;;;;;8.73;5.17;;;;;;;;;;5098654;28;20236;-62
2022/10/10 02:55:35;;;;;;;6.63;4.87;;;;;;;;;;5098703;28;20228;-64
2022/10/10 02:58:03;;;;;;;6.90;5.27;;;;;;;;;;5099117;28;20210;-62
2022/10/10 03:00:31;;;;;;;8.43;5.37;;;;;;;;;;5098923;28;20210;-63
2022/10/10 03:02:59;;;;;;;6.53;4.97;;;;;;;;;;5098650;28;20202;-63
2022/10/10 03:05:27;;;;;;;7.87;5.00;;;;;;;;;;5098479;28;20309;-63
2022/10/10 03:07:57;;;;;;;5.13;4.63;;;;;;;;;;5092179;28;20194;-63
2022/10/10 03:10:24;;;;;;;7.07;5.40;;;;;;;;;;5095142;28;20222;-63
2022/10/10 03:12:52;;;;;;;5.67;4.97;;;;;;;;;;5097437;28;20198;-63
2022/10/10 03:15:20;;;;;;;9.27;5.03;;;;;;;;;;5091579;28;20630;-63
2022/10/10 03:17:48;;;;;;;9.53;4.90;;;;;;;;;;5097544;28;20220;-63
2022/10/10 03:20:17;;;;;;;10.00;5.10;;;;;;;;;;5097337;28;20205;-63
2022/10/10 03:22:44;;;;;;;6.33;5.20;;;;;;;;;;5098453;28;20216;-63
2022/10/10 03:25:14;;;;;;;7.40;5.73;;;;;;;;;;5097404;28;20232;-63
2022/10/10 03:27:42;;;;;;;5.93;4.97;;;;;;;;;;5097152;28;20585;-63
2022/10/10 03:30:11;;;;;;;7.50;5.30;;;;;;;;;;5096891;28;20753;-63
2022/10/10 03:32:39;;;;;;;6.03;4.93;;;;;;;;;;5094196;28;20657;-63
2022/10/10 03:35:07;;;;;;;6.40;4.87;;;;;;;;;;5094478;28;20228;-63
2022/10/10 03:37:35;;;;;;;10.07;5.50;;;;;;;;;;5097171;28;20205;-61
2022/10/10 03:40:03;;;;;;;6.90;5.07;;;;;;;;;;5097609;28;20194;-62
2022/10/10 03:42:33;;;;;;;5.53;4.93;;;;;;;;;;5094428;28;20205;-62
2022/10/10 03:45:01;;;;;;;6.87;5.53;;;;;;;;;;5095145;28;20752;-62
2022/10/10 03:47:29;;;;;;;9.07;5.37;;;;;;;;;;5091350;28;20201;-61
2022/10/10 03:49:57;;;;;;;8.47;5.77;;;;;;;;;;5097164;28;20217;-63
2022/10/10 03:52:25;;;;;;;8.37;6.23;;;;;;;;;;5094220;28;20275;-61
2022/10/10 03:54:53;;;;;;;8.30;5.63;;;;;;;;;;5093371;28;20698;-63
2022/10/10 03:57:21;;;;;;;7.20;5.77;;;;;;;;;;5095440;28;20209;-61
2022/10/10 03:59:50;;;;;;;8.50;6.53;;;;;;;;;;5095302;28;20560;-61
2022/10/10 04:02:18;;;;;;;8.63;5.70;;;;;;;;;;5088491;28;20285;-61
2022/10/10 04:04:46;;;;;;;7.90;5.67;;;;;;;;;;5096503;28;20276;-63
2022/10/10 04:07:14;;;;;;;8.53;5.93;;;;;;;;;;5093782;28;20202;-62
2022/10/10 04:09:42;;;;;;;6.97;5.80;;;;;;;;;;5092839;28;20229;-62
2022/10/10 04:12:10;;;;;;;9.20;6.70;;;;;;;;;;5097554;28;20216;-62
2022/10/10 04:14:38;;;;;;;9.73;6.00;;;;;;;;;;5097781;28;20225;-62
2022/10/10 04:17:07;;;;;;;7.37;6.17;;;;;;;;;;5097463;28;20571;-62
2022/10/10 04:19:35;;;;;;;8.97;6.57;;;;;;;;;;5097833;28;20218;-62
2022/10/10 04:22:03;;;;;;;7.73;6.53;;;;;;;;;;5097494;28;20205;-62
2022/10/10 04:24:36;;;;;;;13.30;6.87;;;;;;;;;;5097400;28;20257;-62
2022/10/10 04:27:04;;;;;;;10.20;6.20;;;;;;;;;;5097668;28;20198;-62
2022/10/10 04:29:32;;;;;;;7.37;5.57;;;;;;;;;;5094693;28;20226;-62
2022/10/10 04:32:00;;;;;;;6.70;5.63;;;;;;;;;;5095854;28;20201;-63
2022/10/10 04:34:30;;;;;;;8.20;5.30;;;;;;;;;;5096947;28;20226;-63
2022/10/10 04:36:58;;;;;;;7.43;5.40;;;;;;;;;;5096812;28;20201;-63
2022/10/10 04:39:26;;;;;;;7.93;5.40;;;;;;;;;;5096447;28;20202;-64
2022/10/10 04:41:54;;;;;;;8.37;5.30;;;;;;;;;;5096977;28;20213;-61
2022/10/10 04:44:22;;;;;;;9.17;5.33;;;;;;;;;;5097178;28;20251;-60
2022/10/10 04:46:50;;;;;;;8.83;5.87;;;;;;;;;;5097314;28;20205;-61
2022/10/10 04:49:18;;;;;;;20.10;6.30;;;;;;;;;;5097516;28;20237;-60
2022/10/10 04:51:47;;;;;;;7.60;5.53;;;;;;;;;;5097622;28;20209;-61
2022/10/10 04:54:15;;;;;;;5.83;4.77;;;;;;;;;;5096784;28;20249;-61
2022/10/10 04:56:43;;;;;;;9.30;5.53;;;;;;;;;;5097588;28;20283;-60
2022/10/10 04:59:11;;;;;;;6.63;5.53;;;;;;;;;;5099687;28;20205;-59
2022/10/10 05:01:39;;;;;;;7.67;5.37;;;;;;;;;;5087458;28;20204;-60
2022/10/10 05:04:07;;;;;;;7.77;5.00;;;;;;;;;;5098712;28;20575;-60
2022/10/10 05:06:35;;;;;;;6.87;5.00;;;;;;;;;;5101466;28;20220;-60
2022/10/10 05:09:04;;;;;;;9.33;5.57;;;;;;;;;;5101019;28;20206;-58
2022/10/10 05:11:32;;;;;;;8.20;5.77;;;;;;;;;;5100615;28;20565;-60
2022/10/10 05:14:00;;;;;;;12.60;7.27;;;;;;;;;;5097849;28;20232;-60
2022/10/10 05:16:28;;;;;;;6.70;5.93;;;;;;;;;;5106822;28;20225;-61
2022/10/10 05:18:56;;;;;;;12.17;5.63;;;;;;;;;;5100936;28;20197;-60
2022/10/10 05:21:24;;;;;;;11.50;5.93;;;;;;;;;;5100308;28;20638;-59
2022/10/10 05:23:52;;;;;;;8.90;5.30;;;;;;;;;;5100074;28;20692;-59
2022/10/10 05:26:22;;;;;;;8.20;5.60;;;;;;;;;;5099926;28;20568;-60
2022/10/10 05:28:50;;;;;;;7.50;5.20;;;;;;;;;;5100136;28;20221;-60
2022/10/10 05:31:18;;;;;;;8.57;5.07;;;;;;;;;;5096605;28;20297;-60
2022/10/10 05:33:45;;;;;;;9.10;5.53;;;;;;;;;;5096745;28;20221;-61
2022/10/10 05:36:14;;;;;;;8.27;5.10;;;;;;;;;;5100123;28;20236;-61
2022/10/10 05:38:42;;;;;;;6.83;5.37;;;;;;;;;;5099781;28;20205;-60
2022/10/10 05:41:10;;;;;;;8.70;5.77;;;;;;;;;;5100428;28;20206;-60
2022/10/10 05:43:39;;;;;;;11.57;5.57;;;;;;;;;;5100454;28;20237;-60
2022/10/10 05:46:07;;;;;;;8.57;5.20;;;;;;;;;;5100233;28;20209;-61
2022/10/10 05:48:35;;;;;;;10.43;6.27;;;;;;;;;;5100357;28;20205;-59
2022/10/10 05:51:03;;;;;;;6.07;4.70;;;;;;;;;;5100085;28;20595;-59
2022/10/10 05:53:31;;;;;;;8.77;5.50;;;;;;;;;;5099832;28;20237;-59
2022/10/10 05:56:00;;;;;;;8.93;5.23;;;;;;;;;;5099970;28;20708;-59
2022/10/10 05:58:29;;;;;;;10.27;5.97;;;;;;;;;;5100245;28;20209;-58
2022/10/10 06:01:02;;;;;;;13.80;6.27;;;;;;;;;;5100121;28;20208;-60
2022/10/10 06:03:30;;;;;;;7.80;5.90;;;;;;;;;;5098468;28;20380;-60
2022/10/10 06:05:58;;;;;;;9.30;5.63;;;;;;;;;;5099645;28;20549;-60
2022/10/10 06:08:26;;;;;;;7.27;5.10;;;;;;;;;;5099260;28;20210;-60
2022/10/10 06:10:54;;;;;;;8.07;4.20;;;;;;;;;;5098676;28;20689;-60
2022/10/10 06:13:22;;;;;;;8.23;5.40;;;;;;;;;;5099459;28;20225;-61
2022/10/10 06:15:51;;;;;;;10.70;5.00;;;;;;;;;;5099292;28;20244;-60
2022/10/10 06:18:21;;;;;;;8.30;4.83;;;;;;;;;;5099714;28;20213;-62
2022/10/10 06:20:49;;;;;;;10.97;5.17;;;;;;;;;;5099532;28;20204;-62
2022/10/10 06:23:17;;;;;;;6.47;4.43;;;;;;;;;;5099167;28;20249;-62
2022/10/10 06:25:45;;;;;;;6.90;5.27;;;;;;;;;;5099140;28;20280;-61
2022/10/10 06:28:13;;;;;;;9.03;5.17;;;;;;;;;;5099189;28;20202;-60
2022/10/10 06:30:41;;;;;;;6.73;5.03;;;;;;;;;;5098885;28;20688;-60
2022/10/10 06:33:09;;;;;;;7.60;5.87;;;;;;;;;;5098896;28;20201;-62
2022/10/10 06:35:42;;;;;;;11.27;5.33;;;;;;;;;;5099100;28;20212;-61
2022/10/10 06:38:11;;;;;;;9.33;5.43;;;;;;;;;;5098806;28;20205;-62
2022/10/10 06:40:39;;;;;;;8.70;5.07;;;;;;;;;;5098337;28;20198;-61
2022/10/10 06:43:10;;;;;;;9.37;5.70;;;;;;;;;;5093072;28;20207;-62
2022/10/10 06:45:39;;;;;;;9.40;6.80;;;;;;;;;;5098763;28;20231;-66
2022/10/10 06:48:07;;;;;;;7.00;6.00;;;;;;;;;;5098679;28;20240;-66
2022/10/10 06:50:36;;;;;;;11.83;6.60;;;;;;;;;;5099057;28;20230;-64
2022/10/10 06:53:05;;;;;;;10.53;6.43;;;;;;;;;;5095715;28;20253;-66
2022/10/10 06:55:33;;;;;;;7.30;6.23;;;;;;;;;;5098810;28;20205;-66
2022/10/10 06:58:01;;;;;;;9.57;6.57;;;;;;;;;;5098806;28;20197;-65
2022/10/10 07:00:29;;;;;;;9.93;6.30;;;;;;;;;;5098526;28;20684;-65
2022/10/10 07:02:57;;;;;;;7.30;5.77;;;;;;;;;;5098963;28;20220;-65
2022/10/10 07:05:25;;;;;;;10.10;7.90;;;;;;;;;;5098572;28;20627;-66
2022/10/10 07:07:53;;;;;;;13.00;6.63;;;;;;;;;;5098453;28;20691;-66
2022/10/10 07:10:23;;;;;;;10.47;6.57;;;;;;;;;;5098578;28;20202;-66
2022/10/10 07:12:51;;;;;;;12.53;6.70;;;;;;;;;;5098835;28;20287;-66
2022/10/10 07:15:19;;;;;;;11.70;5.97;;;;;;;;;;5098376;28;20229;-66
2022/10/10 07:17:47;;;;;;;15.43;7.20;;;;;;;;;;5098301;28;20216;-66
2022/10/10 07:20:21;;;;;;;7.83;6.30;;;;;;;;;;5098166;28;20611;-66
2022/10/10 07:22:49;;;;;;;11.37;6.90;;;;;;;;;;5096872;28;20206;-66
2022/10/10 07:25:17;;;;;;;10.70;6.47;;;;;;;;;;5097896;28;20267;-66
2022/10/10 07:27:46;;;;;;;9.63;6.40;;;;;;;;;;5098264;28;20201;-66
2022/10/10 07:30:15;;;;;;;15.03;7.30;;;;;;;;;;5085232;28;20236;-66
2022/10/10 07:32:43;;;;;;;11.73;7.00;;;;;;;;;;5098414;28;20233;-66
2022/10/10 07:35:11;;;;;;;8.23;6.83;;;;;;;;;;5097813;28;20622;-66
2022/10/10 07:37:39;;;;;;;11.03;8.30;;;;;;;;;;5097980;28;20205;-65
2022/10/10 07:40:08;;;;;;;13.20;7.00;;;;;;;;;;5098218;28;20209;-66
2022/10/10 07:42:36;;;;;;;11.60;7.23;;;;;;;;;;5097790;28;20205;-66
2022/10/10 07:45:06;;;;;;;10.50;7.47;;;;;;;;;;5098077;28;20233;-66
2022/10/10 07:47:34;;;;;;;14.23;6.73;;;;;;;;;;5085720;28;20280;-65
2022/10/10 07:50:02;;;;;;;17.97;7.37;;;;;;;;;;5097980;28;20205;-66
2022/10/10 07:52:30;;;;;;;11.27;7.30;;;;;;;;;;5097601;28;20234;-66
2022/10/10 07:54:58;;;;;;;10.20;6.80;;;;;;;;;;5097733;28;20226;-66
2022/10/10 07:57:26;;;;;;;9.77;6.80;;;;;;;;;;5097849;28;20206;-66
2022/10/10 07:59:54;;;;;;;10.33;7.13;;;;;;;;;;5097987;28;20268;-66
2022/10/10 08:02:23;;;;;;;11.40;6.80;;;;;;;;;;5098076;28;20205;-66
2022/10/10 08:04:51;;;;;;;10.83;7.03;;;;;;;;;;5097582;28;20226;-66
2022/10/10 08:07:19;;;;;;;11.30;7.33;;;;;;;;;;5098017;28;20205;-66
2022/10/10 08:09:47;;;;;;;10.33;6.90;;;;;;;;;;5097437;28;20571;-66
2022/10/10 08:12:15;;;;;;;12.87;7.07;;;;;;;;;;5097308;28;20225;-66
2022/10/10 08:14:43;;;;;;;12.50;6.73;;;;;;;;;;5097737;28;20232;-65
2022/10/10 08:17:11;;;;;;;6.60;5.97;;;;;;;;;;5097296;28;20210;-64
2022/10/10 08:19:41;;;;;;;7.33;6.37;;;;;;;;;;5097527;28;20669;-65
2022/10/10 08:22:09;;;;;;;7.50;6.43;;;;;;;;;;5097619;28;20205;-65
2022/10/10 08:24:36;;;;;;;9.43;6.67;;;;;;;;;;5097319;28;20221;-65
2022/10/10 08:27:04;;;;;;;7.87;6.43;;;;;;;;;;5097333;28;20336;-64
2022/10/10 08:29:33;;;;;;;8.40;6.60;;;;;;;;;;5097564;28;20205;-64
2022/10/10 08:32:01;;;;;;;10.60;6.10;;;;;;;;;;5097508;28;20239;-65
2022/10/10 08:34:28;;;;;;;7.63;6.00;;;;;;;;;;5100162;28;20229;-65
2022/10/10 08:36:58;;;;;;;7.17;6.30;;;;;;;;;;5101394;28;20213;-65
2022/10/10 08:39:26;;;;;;;7.77;5.30;;;;;;;;;;5101074;28;20584;-65
2022/10/10 08:41:55;;;;;;;7.63;5.97;;;;;;;;;;5101233;28;20209;-65
2022/10/10 08:44:28;;;;;;;10.30;5.90;;;;;;;;;;5101497;28;20226;-65
2022/10/10 08:46:57;;;;;;;10.13;6.23;;;;;;;;;;5101659;28;20209;-65
2022/10/10 08:49:27;;;;;;;15.77;7.43;;;;;;;;;;5101281;28;20210;-65
2022/10/10 08:52:01;;;;;;;10.60;6.07;;;;;;;;;;5101222;28;20229;-65
2022/10/10 08:54:29;;;;;;;8.37;6.07;;;;;;;;;;5093857;28;20241;-65
2022/10/10 08:56:59;;;;;;;9.20;5.90;;;;;;;;;;5101001;28;20216;-65
2022/10/10 08:59:29;;;;;;;9.13;5.63;;;;;;;;;;5101434;28;20221;-65
2022/10/10 09:02:00;;;;;;;6.80;5.37;;;;;;;;;;5100939;28;20216;-65
2022/10/10 09:04:48;;;;;;;9.67;5.67;;;;;;;;;;5101160;28;20245;-64
2022/10/10 09:07:23;;;;;;;8.47;6.83;;;;;;;;;;5101131;28;20209;-64
2022/10/10 09:09:55;;;;;;;7.10;6.17;;;;;;;;;;5097767;28;20557;-63
2022/10/10 09:12:26;;;;;;;8.13;6.67;;;;;;;;;;5099914;28;20232;-64
2022/10/10 09:15:00;;;;;;;7.17;5.67;;;;;;;;;;5100817;28;20236;-63
2022/10/10 09:17:34;;;;;;;8.30;5.70;;;;;;;;;;5100954;28;20205;-62
2022/10/10 09:20:06;;;;;;;7.27;5.43;;;;;;;;;;5100576;28;20551;-63
2022/10/10 09:22:40;;;;;;;7.47;5.17;;;;;;;;;;5100777;28;20205;-63
2022/10/10 09:25:16;;;;;;;7.43;4.73;;;;;;;;;;5099431;28;20228;-64
2022/10/10 09:27:47;;;;;;;6.97;4.90;;;;;;;;;;5095440;28;20216;-61
2022/10/10 09:30:17;;;;;;;7.00;4.90;;;;;;;;;;5087400;28;20212;-61
2022/10/10 09:32:48;;;;;;;7.90;4.90;;;;;;;;;;5099862;28;20229;-65
2022/10/10 09:35:18;;;;;;;8.40;4.80;;;;;;;;;;5100083;28;20716;-63
2022/10/10 09:37:49;;;;;;;6.80;5.00;;;;;;;;;;5100258;28;20212;-63
2022/10/10 09:40:20;;;;;;;7.73;5.13;;;;;;;;;;5098401;28;20201;-64
2022/10/10 09:42:48;;;;;;;6.77;5.10;;;;;;;;;;5098622;28;20209;-63
2022/10/10 09:45:18;;;;;;;14.90;6.17;;;;;;;;;;5099313;28;20229;-64
2022/10/10 09:47:47;;;;;;;22.97;8.27;;;;;;;;;;5100092;28;20584;-63
2022/10/10 09:50:15;;;;;;;27.67;8.37;;;;;;;;;;5100014;28;20209;-64
2022/10/10 09:52:44;;;;;;;26.83;7.70;;;;;;;;;;5099660;28;20241;-63
2022/10/10 09:55:23;;;;;;;13.57;5.83;;;;;;;;;;5099778;28;20596;-63
2022/10/10 09:57:52;;;;;;;8.43;4.00;;;;;;;;;;5099836;28;20208;-63
2022/10/10 10:00:28;;;;;;;5.83;4.00;;;;;;;;;;5100017;28;20205;-63
2022/10/10 10:03:06;;;;;;;4.10;3.10;;;;;;;;;;5099981;28;20208;-63
2022/10/10 10:05:35;;;;;;;9.60;3.20;;;;;;;;;;5094719;28;20209;-64
2022/10/10 10:08:03;;;;;;;7.47;3.47;;;;;;;;;;5094896;28;20202;-62
2022/10/10 10:10:34;;;;;;;5.97;3.37;;;;;;;;;;5098818;28;20206;-62
2022/10/10 10:13:02;;;;;;;7.07;3.13;;;;;;;;;;5098330;28;20236;-63
2022/10/10 10:15:31;;;;;;;6.63;2.90;;;;;;;;;;5097750;28;20217;-64
2022/10/10 10:18:12;;;;;;;4.70;3.03;;;;;;;;;;5097734;28;20656;-64
2022/10/10 10:20:41;;;;;;;3.50;2.83;;;;;;;;;;5097649;28;20213;-63
2022/10/10 10:23:22;;;;;;;7.10;2.53;;;;;;;;;;5097401;28;20201;-63
2022/10/10 10:25:58;;;;;;;5.43;2.70;;;;;;;;;;5085967;28;20612;-64
2022/10/10 10:28:27;;;;;;;3.53;2.50;;;;;;;;;;5099494;28;20205;-63
2022/10/10 10:30:56;;;;;;;8.20;3.00;;;;;;;;;;5099249;28;20649;-64
2022/10/10 10:33:31;;;;;;;5.27;2.60;;;;;;;;;;5099340;28;20232;-63
2022/10/10 10:36:03;;;;;;;4.37;2.40;;;;;;;;;;5099038;28;20236;-63
2022/10/10 10:38:36;;;;;;;7.27;2.63;;;;;;;;;;5099032;28;20209;-63
2022/10/10 10:41:10;;;;;;;4.60;2.40;;;;;;;;;;5098967;28;21548;-64
2022/10/10 10:44:11;;;;;;;6.33;3.30;;;;;;;;;;5099001;28;20241;-64
2022/10/10 10:46:46;;;;;;;9.23;3.10;;;;;;;;;;5036707;28;20217;-63
2022/10/10 10:49:15;;;;;;;6.33;2.57;;;;;;;;;;5036649;28;20213;-63
2022/10/10 10:51:52;;;;;;;5.80;2.43;;;;;;;;;;5070196;28;20206;-63
2022/10/10 10:54:27;;;;;;;4.57;2.27;;;;;;;;;;5098155;28;20239;-63
2022/10/10 10:57:01;;;;;;;5.37;2.30;;;;;;;;;;5099089;28;20205;-63
2022/10/10 10:59:44;;;;;;;6.87;2.60;;;;;;;;;;5099221;28;20254;-63
2022/10/10 11:02:37;;;;;;;5.03;1.80;;;;;;;;;;5098671;28;20275;-64
2022/10/10 11:05:33;;;;;;;3.57;2.37;;;;;;;;;;5098497;28;20625;-63
2022/10/10 11:08:26;;;;;;;4.07;2.10;;;;;;;;;;5098482;28;20243;-63
2022/10/10 11:10:59;;;;;;;6.00;1.90;;;;;;;;;;5098569;28;20310;-63
2022/10/10 11:13:33;;;;;;;4.50;1.97;;;;;;;;;;5098552;28;20236;-63
2022/10/10 11:16:05;;;;;;;3.20;2.00;;;;;;;;;;5098812;28;20207;-64
2022/10/10 11:18:45;;;;;;;5.67;2.73;;;;;;;;;;5098630;28;20209;-64
2022/10/10 11:21:15;;;;;;;6.00;2.40;;;;;;;;;;5098654;28;20201;-65
2022/10/10 11:23:45;;;;;;;5.00;2.27;;;;;;;;;;5097463;28;20689;-63
2022/10/10 11:26:18;;;;;;;3.47;1.93;;;;;;;;;;5095425;28;20201;-63
2022/10/10 11:28:50;;;;;;;4.80;1.70;;;;;;;;;;5098451;28;20212;-63
2022/10/10 11:31:20;;;;;;;2.80;2.10;;;;;;;;;;5098064;28;20614;-64
2022/10/10 11:33:51;;;;;;;3.17;1.50;;;;;;;;;;5098399;28;20237;-63
2022/10/10 11:36:24;;;;;;;5.80;2.17;;;;;;;;;;5098306;28;20215;-63
2022/10/10 11:38:54;;;;;;;6.10;2.10;;;;;;;;;;5098519;28;20205;-64
2022/10/10 11:41:24;;;;;;;6.30;2.30;;;;;;;;;;5097928;28;20567;-63
2022/10/10 11:43:54;;;;;;;4.83;1.60;;;;;;;;;;5098053;28;20221;-64
2022/10/10 11:46:27;;;;;;;4.83;1.80;;;;;;;;;;5098064;28;20210;-64
2022/10/10 11:48:59;;;;;;;4.33;1.77;;;;;;;;;;5097821;28;20614;-64
2022/10/10 11:51:35;;;;;;;4.10;1.67;;;;;;;;;;5098097;28;20230;-65
2022/10/10 11:54:06;;;;;;;5.00;1.93;;;;;;;;;;5097303;28;20245;-65
2022/10/10 11:56:37;;;;;;;3.40;1.63;;;;;;;;;;5098030;28;20202;-65
2022/10/10 11:59:08;;;;;;;6.93;1.90;;;;;;;;;;5098137;28;20210;-64
2022/10/10 12:01:38;;;;;;;4.07;2.00;;;;;;;;;;5098059;28;20209;-64
2022/10/10 12:04:06;;;;;;;4.50;1.83;;;;;;;;;;5097505;28;20691;-64
2022/10/10 12:06:35;;;;;;;4.07;2.00;;;;;;;;;;5097627;28;20209;-64
2022/10/10 12:09:05;;;;;;;2.93;1.80;;;;;;;;;;5096868;28;20212;-64
2022/10/10 12:11:36;;;;;;;3.17;1.63;;;;;;;;;;5097729;28;20213;-64
2022/10/10 12:14:07;;;;;;;3.37;1.50;;;;;;;;;;5097448;28;20237;-64
2022/10/10 12:16:37;;;;;;;4.57;1.90;;;;;;;;;;5097723;28;20207;-64
2022/10/10 12:19:06;;;;;;;4.23;1.40;;;;;;;;;;5097844;28;20214;-63
2022/10/10 12:21:52;;;;;;;2.57;1.90;;;;;;;;;;5097703;28;20201;-64
2022/10/10 12:24:20;;;;;;;2.37;1.53;;;;;;;;;;5097169;28;20232;-64
2022/10/10 12:27:14;;;;;;;5.10;2.17;;;;;;;;;;5097503;28;20199;-64
2022/10/10 12:29:44;;;;;;;1.90;1.73;;;;;;;;;;5058098;28;20209;-64
2022/10/10 12:32:26;;;;;;;2.60;1.70;;;;;;;;;;5097364;28;20242;-64
2022/10/10 12:34:58;;;;;;;3.43;2.10;;;;;;;;;;5097389;28;20231;-64
2022/10/10 12:37:27;;;;;;;2.30;1.37;;;;;;;;;;5090522;28;20285;-63
2022/10/10 12:40:03;;;;;;;4.43;1.30;;;;;;;;;;5088361;28;20280;-63
2022/10/10 12:42:32;;;;;;;2.23;1.50;;;;;;;;;;5097436;28;20216;-64
2022/10/10 12:45:00;;;;;;;2.17;1.47;;;;;;;;;;5085704;28;20223;-64
2022/10/10 12:47:31;;;;;;;3.57;1.50;;;;;;;;;;5097363;28;20221;-65
2022/10/10 12:50:22;;;;;;;3.53;1.50;;;;;;;;;;5089349;28;20197;-64
2022/10/10 12:52:51;;;;;;;5.73;2.13;;;;;;;;;;5096719;28;20601;-64
2022/10/10 12:55:21;;;;;;;2.53;1.47;;;;;;;;;;5097190;28;20236;-65
2022/10/10 12:57:50;;;;;;;3.90;1.73;;;;;;;;;;5097446;28;20212;-64
2022/10/10 13:00:19;;;;;;;7.40;1.50;;;;;;;;;;5097271;28;20206;-64
2022/10/10 13:02:50;;;;;;;3.17;1.43;;;;;;;;;;5097079;28;20676;-64
2022/10/10 13:05:19;;;;;;;4.93;1.70;;;;;;;;;;5097181;28;20222;-64
2022/10/10 13:07:48;;;;;;;3.53;1.47;;;;;;;;;;5097058;28;20213;-64
2022/10/10 13:10:20;;;;;;;4.27;1.40;;;;;;;;;;5097394;28;20211;-64
2022/10/10 13:12:58;;;;;;;3.30;1.47;;;;;;;;;;5097132;28;20213;-64
2022/10/10 13:15:26;;;;;;;2.87;1.70;;;;;;;;;;5096646;28;20227;-63
2022/10/10 13:17:55;;;;;;;3.57;1.63;;;;;;;;;;5096798;28;20214;-64
2022/10/10 13:20:27;;;;;;;2.00;1.50;;;;;;;;;;5099368;28;20221;-63
2022/10/10 13:22:56;;;;;;;1.90;1.40;;;;;;;;;;5100714;28;20222;-63
2022/10/10 13:25:24;;;;;;;5.80;1.97;;;;;;;;;;5100375;28;20245;-64
2022/10/10 13:27:52;;;;;;;5.93;1.60;;;;;;;;;;5100522;28;20207;-63
2022/10/10 13:30:20;;;;;;;4.97;1.90;;;;;;;;;;5100483;28;20665;-64
2022/10/10 13:32:48;;;;;;;3.47;1.50;;;;;;;;;;5089779;28;20688;-63
2022/10/10 13:35:20;;;;;;;2.40;1.40;;;;;;;;;;5100543;28;20238;-64
2022/10/10 13:37:50;;;;;;;2.90;1.60;;;;;;;;;;5100026;28;20217;-64
2022/10/10 13:40:19;;;;;;;2.93;1.57;;;;;;;;;;5100507;28;20210;-64
2022/10/10 13:42:48;;;;;;;2.57;1.37;;;;;;;;;;5084786;28;20211;-64
2022/10/10 13:45:34;;;;;;;2.63;1.83;;;;;;;;;;5099598;28;20237;-64
2022/10/10 13:48:26;;;;;;;4.50;1.90;;;;;;;;;;5100176;28;20205;-64
2022/10/10 13:51:00;;;;;;;1.57;1.40;;;;;;;;;;5084171;28;20214;-63
2022/10/10 13:53:33;;;;;;;5.03;1.80;;;;;;;;;;5099767;28;20244;-64
2022/10/10 13:56:04;;;;;;;6.23;1.50;;;;;;;;;;5099693;28;20242;-65
2022/10/10 13:58:33;;;;;;;4.57;2.13;;;;;;;;;;5099800;28;20571;-64
2022/10/10 14:01:02;;;;;;;3.40;1.57;;;;;;;;;;5100108;28;20214;-64
2022/10/10 14:03:33;;;;;;;3.77;1.97;;;;;;;;;;5099912;28;20218;-64
2022/10/10 14:06:02;;;;;;;5.77;1.53;;;;;;;;;;5099971;28;20225;-65
2022/10/10 14:08:31;;;;;;;5.47;1.57;;;;;;;;;;5099604;28;20210;-65
2022/10/10 14:11:00;;;;;;;7.70;1.70;;;;;;;;;;5100021;28;20233;-64
2022/10/10 14:13:30;;;;;;;7.40;1.63;;;;;;;;;;5099664;28;20583;-65
2022/10/10 14:16:09;;;;;;;6.00;1.87;;;;;;;;;;5099669;28;20234;-65
2022/10/10 14:18:37;;;;;;;4.37;1.60;;;;;;;;;;5099891;28;20203;-65
2022/10/10 14:21:08;;;;;;;2.10;1.17;;;;;;;;;;5099799;28;20213;-64
2022/10/10 14:23:36;;;;;;;3.70;1.33;;;;;;;;;;5098997;28;20717;-64
2022/10/10 14:26:04;;;;;;;5.50;1.97;;;;;;;;;;5099629;28;20216;-64
2022/10/10 14:28:33;;;;;;;2.33;1.67;;;;;;;;;;5099251;28;20205;-65
2022/10/10 14:31:01;;;;;;;4.30;1.77;;;;;;;;;;5098983;28;20210;-63
2022/10/10 14:33:30;;;;;;;5.13;2.17;;;;;;;;;;5099380;28;20231;-65
2022/10/10 14:35:58;;;;;;;7.27;2.20;;;;;;;;;;5099384;28;20230;-64
2022/10/10 14:38:28;;;;;;;8.50;2.00;;;;;;;;;;5098997;28;20208;-65
2022/10/10 14:40:56;;;;;;;3.37;1.57;;;;;;;;;;5099266;28;20206;-65
2022/10/10 14:43:24;;;;;;;4.40;1.47;;;;;;;;;;5099052;28;20234;-65
2022/10/10 14:45:52;;;;;;;2.70;1.70;;;;;;;;;;5099389;28;20207;-65
2022/10/10 14:48:20;;;;;;;6.30;1.90;;;;;;;;;;5099453;28;20210;-64
2022/10/10 14:50:50;;;;;;;3.90;1.77;;;;;;;;;;5098943;28;20691;-63
2022/10/10 14:53:18;;;;;;;2.53;1.90;;;;;;;;;;5098603;28;20244;-64
2022/10/10 14:55:47;;;;;;;2.97;1.40;;;;;;;;;;5098771;28;20231;-65
2022/10/10 14:58:22;;;;;;;2.97;1.43;;;;;;;;;;5099078;28;20206;-64